createdAt,value
2023-06-07T00:02:26.426Z,5.03
2023-06-07T00:04:56.819Z,4.95
2023-06-07T00:07:23.738Z,5.70
2023-06-07T00:09:51.350Z,4.88
2023-06-07T00:12:18.316Z,4.22
2023-06-07T00:14:45.439Z,6.13
2023-06-07T00:17:12.293Z,6.07
2023-06-07T00:19:39.201Z,6.78
2023-06-07T00:22:06.057Z,5.75
2023-06-07T00:24:33.430Z,5.55
2023-06-07T00:27:00.379Z,6.03
2023-06-07T00:29:27.201Z,5.43
2023-06-07T00:31:54.343Z,5.47
2023-06-07T00:34:21.832Z,5.72
2023-06-07T00:36:48.779Z,5.38
2023-06-07T00:39:16.133Z,6.07
2023-06-07T00:41:43.084Z,6.22
2023-06-07T00:44:09.986Z,5.38
2023-06-07T00:46:36.850Z,5.40
2023-06-07T00:49:03.805Z,6.00
2023-06-07T00:51:31.871Z,5.38
2023-06-07T00:54:01.759Z,5.07
2023-06-07T00:56:29.082Z,4.72
2023-06-07T00:58:56.920Z,6.10
2023-06-07T01:01:23.846Z,5.18
2023-06-07T01:03:55.004Z,4.82
2023-06-07T01:06:23.367Z,4.60
2023-06-07T01:08:52.227Z,5.40
2023-06-07T01:11:22.502Z,6.20
2023-06-07T01:16:16.724Z,5.45
2023-06-07T01:18:46.696Z,5.78
2023-06-07T01:21:14.863Z,5.50
2023-06-07T01:23:42.879Z,5.13
2023-06-07T01:26:10.765Z,5.95
2023-06-07T01:28:42.799Z,5.88
2023-06-07T01:31:11.053Z,5.43
2023-06-07T01:33:38.292Z,5.80
2023-06-07T01:36:07.471Z,4.57
2023-06-07T01:38:34.895Z,5.47
2023-06-07T01:41:02.917Z,5.03
2023-06-07T01:43:31.267Z,5.68
2023-06-07T01:45:59.607Z,5.00
2023-06-07T01:48:27.011Z,5.35
2023-06-07T01:50:53.909Z,4.90
2023-06-07T01:53:21.161Z,5.10
2023-06-07T01:55:59.371Z,6.03
2023-06-07T01:58:38.880Z,7.03
2023-06-07T02:01:36.415Z,8.18
2023-06-07T02:04:08.885Z,11.52
2023-06-07T02:06:41.335Z,14.52
2023-06-07T02:09:11.799Z,12.60
2023-06-07T02:11:40.218Z,11.68
2023-06-07T02:14:08.322Z,10.93
2023-06-07T02:16:36.928Z,11.10
2023-06-07T02:19:08.041Z,11.88
2023-06-07T02:21:45.837Z,11.02
2023-06-07T02:24:12.908Z,10.23
2023-06-07T02:26:40.630Z,9.95
2023-06-07T02:29:07.580Z,10.60
2023-06-07T02:31:34.536Z,9.68
2023-06-07T02:34:02.781Z,11.98
2023-06-07T02:36:34.282Z,13.45
2023-06-07T02:39:03.712Z,12.38
2023-06-07T02:41:30.872Z,11.85
2023-06-07T02:43:57.741Z,10.35
2023-06-07T02:46:24.923Z,10.93
2023-06-07T02:48:54.193Z,10.55
2023-06-07T02:51:22.309Z,9.90
2023-06-07T02:53:50.365Z,8.68
2023-06-07T02:56:20.506Z,7.90
2023-06-07T02:58:47.355Z,7.38
2023-06-07T03:01:15.378Z,6.63
2023-06-07T03:03:48.063Z,6.15
2023-06-07T03:06:16.270Z,6.38
2023-06-07T03:08:44.273Z,6.70
2023-06-07T03:11:14.620Z,6.78
2023-06-07T03:13:45.770Z,6.35
2023-06-07T03:16:15.983Z,6.40
2023-06-07T03:18:51.033Z,6.55
2023-06-07T03:21:19.062Z,6.47
2023-06-07T03:23:46.395Z,5.38
2023-06-07T03:26:13.372Z,6.13
2023-06-07T03:28:40.259Z,6.65
2023-06-07T03:31:08.205Z,5.80
2023-06-07T03:33:50.635Z,6.45
2023-06-07T03:36:22.127Z,6.35
2023-06-07T03:38:51.390Z,6.13
2023-06-07T03:41:18.338Z,6.38
2023-06-07T03:43:45.332Z,6.40
2023-06-07T03:46:12.328Z,5.88
2023-06-07T03:48:39.450Z,6.53
2023-06-07T03:51:07.809Z,6.72
2023-06-07T03:53:36.177Z,6.18
2023-06-07T03:56:03.603Z,6.05
2023-06-07T03:58:32.870Z,5.75
2023-06-07T04:01:07.396Z,6.13
2023-06-07T04:03:35.493Z,6.50
2023-06-07T04:06:06.436Z,6.07
2023-06-07T04:08:37.525Z,6.57
2023-06-07T04:11:04.472Z,7.13
2023-06-07T04:13:31.604Z,7.38
2023-06-07T04:15:58.603Z,7.03
2023-06-07T04:18:26.927Z,6.88
2023-06-07T04:20:54.212Z,6.97
2023-06-07T04:23:22.297Z,6.28
2023-06-07T04:25:49.984Z,6.22
2023-06-07T04:28:18.513Z,5.63
2023-06-07T04:30:45.881Z,6.20
2023-06-07T04:33:15.810Z,6.65
2023-06-07T04:35:47.278Z,6.38
2023-06-07T04:38:25.027Z,6.63
2023-06-07T04:40:58.128Z,7.22
2023-06-07T04:43:36.748Z,7.07
2023-06-07T04:46:08.095Z,7.18
2023-06-07T04:48:42.273Z,6.88
2023-06-07T04:51:21.620Z,6.93
2023-06-07T04:53:51.489Z,7.38
2023-06-07T04:56:22.713Z,6.95
2023-06-07T04:58:53.549Z,7.97
2023-06-07T05:01:23.616Z,7.70
2023-06-07T05:03:58.488Z,8.05
2023-06-07T05:06:25.348Z,7.82
2023-06-07T05:08:54.279Z,8.05
2023-06-07T05:11:21.215Z,7.78
2023-06-07T05:13:48.425Z,8.48
2023-06-07T05:16:17.747Z,8.98
2023-06-07T05:21:21.750Z,8.98
2023-06-07T05:23:48.870Z,8.40
2023-06-07T05:26:16.443Z,8.88
2023-06-07T05:28:43.280Z,7.63
2023-06-07T05:31:12.281Z,8.65
2023-06-07T05:33:41.077Z,7.82
2023-06-07T05:36:08.631Z,8.95
2023-06-07T05:38:37.798Z,8.40
2023-06-07T05:41:05.027Z,9.02
2023-06-07T05:43:32.162Z,8.27
2023-06-07T05:45:59.206Z,8.30
2023-06-07T05:48:26.080Z,7.80
2023-06-07T05:50:53.273Z,8.10
2023-06-07T05:53:20.974Z,7.95
2023-06-07T05:55:49.149Z,7.90
2023-06-07T05:58:16.030Z,8.63
2023-06-07T06:00:45.268Z,9.30
2023-06-07T06:03:12.624Z,8.25
2023-06-07T06:05:39.525Z,7.70
2023-06-07T06:08:06.408Z,8.80
2023-06-07T06:10:35.696Z,8.15
2023-06-07T06:13:03.069Z,9.10
2023-06-07T06:15:30.088Z,8.82
2023-06-07T06:17:57.008Z,9.15
2023-06-07T06:20:23.959Z,8.52
2023-06-07T06:22:51.354Z,9.43
2023-06-07T06:25:18.400Z,8.27
2023-06-07T06:27:45.439Z,7.80
2023-06-07T06:30:12.743Z,6.18
2023-06-07T06:32:40.310Z,7.10
2023-06-07T06:35:07.578Z,8.45
2023-06-07T06:37:34.467Z,7.32
2023-06-07T06:40:01.411Z,7.93
2023-06-07T06:42:28.356Z,7.55
2023-06-07T06:45:21.681Z,7.57
2023-06-07T06:47:48.758Z,7.25
2023-06-07T06:50:30.947Z,7.38
2023-06-07T06:52:59.503Z,6.72
2023-06-07T06:55:26.483Z,6.15
2023-06-07T06:57:53.381Z,6.88
2023-06-07T07:00:20.672Z,6.43
2023-06-07T07:02:47.699Z,6.63
2023-06-07T07:05:15.331Z,5.50
2023-06-07T07:07:42.761Z,5.85
2023-06-07T07:10:10.077Z,6.10
2023-06-07T07:12:40.536Z,6.68
2023-06-07T07:15:07.703Z,5.85
2023-06-07T07:17:34.969Z,6.55
2023-06-07T07:20:02.080Z,5.88
2023-06-07T07:22:29.293Z,6.50
2023-06-07T07:24:59.248Z,6.60
2023-06-07T07:27:26.290Z,6.57
2023-06-07T07:29:53.226Z,5.95
2023-06-07T07:32:20.285Z,5.55
2023-06-07T07:34:47.313Z,6.53
2023-06-07T07:37:15.606Z,6.63
2023-06-07T07:39:42.571Z,5.43
2023-06-07T07:42:09.797Z,6.32
2023-06-07T07:44:38.083Z,6.13
2023-06-07T07:47:06.921Z,4.93
2023-06-07T07:49:36.491Z,6.78
2023-06-07T07:52:03.910Z,6.68
2023-06-07T07:54:30.840Z,5.80
2023-06-07T07:56:57.853Z,6.35
2023-06-07T07:59:25.001Z,5.80
2023-06-07T08:01:52.781Z,6.22
2023-06-07T08:04:19.738Z,6.20
2023-06-07T08:06:46.773Z,6.28
2023-06-07T08:09:14.178Z,6.30
2023-06-07T08:11:41.562Z,6.38
2023-06-07T08:14:08.489Z,5.70
2023-06-07T08:16:35.428Z,5.70
2023-06-07T08:19:04.296Z,6.35
2023-06-07T08:21:32.140Z,6.38
2023-06-07T08:23:59.086Z,6.35
2023-06-07T08:26:26.236Z,4.95
2023-06-07T08:28:53.062Z,6.05
2023-06-07T08:31:20.331Z,6.10
2023-06-07T08:33:47.398Z,5.28
2023-06-07T08:36:15.064Z,4.90
2023-06-07T08:38:42.665Z,5.47
2023-06-07T08:41:10.504Z,5.35
2023-06-07T08:43:39.242Z,5.80
2023-06-07T08:46:06.498Z,6.22
2023-06-07T08:48:37.010Z,5.38
2023-06-07T08:51:08.776Z,6.35
2023-06-07T08:53:44.840Z,4.60
2023-06-07T08:56:12.592Z,5.13
2023-06-07T08:58:42.056Z,4.45
2023-06-07T09:01:09.398Z,4.93
2023-06-07T09:03:36.450Z,4.95
2023-06-07T09:06:03.477Z,4.95
2023-06-07T09:08:30.444Z,4.82
2023-06-07T09:10:57.350Z,4.55
2023-06-07T09:13:25.797Z,4.72
2023-06-07T09:15:53.751Z,4.63
2023-06-07T09:18:20.816Z,4.45
2023-06-07T09:20:47.757Z,4.43
2023-06-07T09:23:16.100Z,4.18
2023-06-07T09:25:47.099Z,4.05
2023-06-07T09:28:15.707Z,4.57
2023-06-07T09:30:56.355Z,4.28
2023-06-07T09:33:29.284Z,3.75
2023-06-07T09:36:16.316Z,3.90
2023-06-07T09:38:43.523Z,4.30
2023-06-07T09:41:11.072Z,3.53
2023-06-07T09:43:44.852Z,4.70
2023-06-07T09:46:13.236Z,4.03
2023-06-07T09:48:50.194Z,4.13
2023-06-07T09:51:17.572Z,4.10
2023-06-07T09:54:03.233Z,3.80
2023-06-07T09:56:30.166Z,3.65
2023-06-07T09:59:08.480Z,3.58
2023-06-07T10:01:39.031Z,4.32
2023-06-07T10:04:07.338Z,3.90
2023-06-07T10:06:39.116Z,3.78
2023-06-07T10:09:06.986Z,5.18
2023-06-07T10:11:35.617Z,5.55
2023-06-07T10:14:17.792Z,5.50
2023-06-07T10:16:52.639Z,4.97
2023-06-07T10:19:35.260Z,4.72
2023-06-07T10:22:03.290Z,6.43
2023-06-07T10:24:40.977Z,5.75
2023-06-07T10:27:14.941Z,4.65
2023-06-07T10:29:59.138Z,4.65
2023-06-07T10:32:30.440Z,4.45
2023-06-07T10:34:58.670Z,5.13
2023-06-07T10:37:31.909Z,4.88
2023-06-07T10:39:59.739Z,4.88
2023-06-07T10:42:27.528Z,5.63
2023-06-07T10:44:56.143Z,4.22
2023-06-07T10:47:23.293Z,4.93
2023-06-07T10:49:52.279Z,5.03
2023-06-07T10:52:19.603Z,4.75
2023-06-07T10:54:46.783Z,4.93
2023-06-07T10:57:13.959Z,4.63
2023-06-07T10:59:42.147Z,6.30
2023-06-07T11:02:25.934Z,3.90
2023-06-07T11:04:56.980Z,4.45
2023-06-07T11:07:32.618Z,4.30
2023-06-07T11:10:06.575Z,4.28
2023-06-07T11:12:37.505Z,4.18
2023-06-07T11:15:22.700Z,3.75
2023-06-07T11:17:55.905Z,4.28
2023-06-07T11:20:38.405Z,4.40
2023-06-07T11:23:28.931Z,3.55
2023-06-07T11:26:11.165Z,3.75
2023-06-07T11:28:40.664Z,3.90
2023-06-07T11:31:16.515Z,3.30
2023-06-07T11:33:44.258Z,3.78
2023-06-07T11:36:12.291Z,4.57
2023-06-07T11:38:39.984Z,3.25
2023-06-07T11:41:07.391Z,3.25
2023-06-07T11:43:34.700Z,3.85
2023-06-07T11:46:01.775Z,3.30
2023-06-07T11:48:30.516Z,3.40
2023-06-07T11:50:58.428Z,3.30
2023-06-07T11:53:29.722Z,3.35
2023-06-07T11:55:57.314Z,3.30
2023-06-07T11:58:25.520Z,3.45
2023-06-07T12:00:53.520Z,3.30
2023-06-07T12:03:24.240Z,2.95
2023-06-07T12:05:52.233Z,3.10
2023-06-07T12:08:19.661Z,3.50
2023-06-07T12:10:56.424Z,3.20
2023-06-07T12:13:24.590Z,3.42
2023-06-07T12:15:56.337Z,3.05
2023-06-07T12:18:30.441Z,2.88
2023-06-07T12:21:11.978Z,3.60
2023-06-07T12:23:46.037Z,3.65
2023-06-07T12:26:17.797Z,4.63
2023-06-07T12:28:45.193Z,4.25
2023-06-07T12:31:21.443Z,3.78
2023-06-07T12:34:07.711Z,3.08
2023-06-07T12:36:36.614Z,3.28
2023-06-07T12:39:06.204Z,2.90
2023-06-07T12:41:34.192Z,3.10
2023-06-07T12:44:04.849Z,3.35
2023-06-07T12:46:33.907Z,3.78
2023-06-07T12:49:01.253Z,3.67
2023-06-07T12:51:29.073Z,2.97
2023-06-07T12:53:56.557Z,3.55
2023-06-07T12:56:24.230Z,2.90
2023-06-07T12:58:51.285Z,3.15
2023-06-07T13:01:18.465Z,3.17
2023-06-07T13:03:46.244Z,3.17
2023-06-07T13:06:13.364Z,3.58
2023-06-07T13:08:40.254Z,3.13
2023-06-07T13:11:07.265Z,2.80
2023-06-07T13:13:34.364Z,3.72
2023-06-07T13:16:01.929Z,3.58
2023-06-07T13:18:30.332Z,3.72
2023-06-07T13:20:57.434Z,3.88
2023-06-07T13:23:24.854Z,3.38
2023-06-07T13:25:51.813Z,3.00
2023-06-07T13:28:20.766Z,3.13
2023-06-07T13:30:47.984Z,3.97
2023-06-07T13:33:19.118Z,2.90
2023-06-07T13:35:46.208Z,2.60
2023-06-07T13:38:13.174Z,2.72
2023-06-07T13:40:40.253Z,3.10
2023-06-07T13:43:07.944Z,3.15
2023-06-07T13:45:35.033Z,3.75
2023-06-07T13:48:03.310Z,3.40
2023-06-07T13:50:31.823Z,3.00
2023-06-07T13:52:59.192Z,2.90
2023-06-07T13:55:26.807Z,3.60
2023-06-07T13:57:56.254Z,3.40
2023-06-07T14:00:24.038Z,3.10
2023-06-07T14:02:51.508Z,3.10
2023-06-07T14:05:19.027Z,3.92
2023-06-07T14:07:47.219Z,2.95
2023-06-07T14:10:16.416Z,3.40
2023-06-07T14:12:43.392Z,3.03
2023-06-07T14:15:10.713Z,3.70
2023-06-07T14:17:38.825Z,3.13
2023-06-07T14:20:07.584Z,3.15
2023-06-07T14:22:34.671Z,3.83
2023-06-07T14:25:01.567Z,2.90
2023-06-07T14:27:28.445Z,3.40
2023-06-07T14:29:55.326Z,3.53
2023-06-07T14:32:22.325Z,4.35
2023-06-07T14:34:49.128Z,3.20
2023-06-07T14:37:16.220Z,4.03
2023-06-07T14:39:43.117Z,3.85
2023-06-07T14:42:11.865Z,3.55
2023-06-07T14:47:07.263Z,3.65
2023-06-07T14:49:34.173Z,2.95
2023-06-07T14:52:01.116Z,3.80
2023-06-07T14:54:28.434Z,3.67
2023-06-07T14:56:55.291Z,3.47
2023-06-07T14:59:22.107Z,3.45
2023-06-07T15:01:49.805Z,3.20
2023-06-07T15:04:16.901Z,4.70
2023-06-07T15:06:43.763Z,3.33
2023-06-07T15:09:10.584Z,3.67
2023-06-07T15:11:37.411Z,3.28
2023-06-07T15:14:04.537Z,4.05
2023-06-07T15:16:31.625Z,3.53
2023-06-07T15:18:58.590Z,4.15
2023-06-07T15:21:26.144Z,3.53
2023-06-07T15:23:53.173Z,3.22
2023-06-07T15:26:20.203Z,4.32
2023-06-07T15:28:47.366Z,4.38
2023-06-07T15:31:15.532Z,3.88
2023-06-07T15:33:42.454Z,3.78
2023-06-07T15:36:09.360Z,4.38
2023-06-07T15:38:38.748Z,4.50
2023-06-07T15:41:09.143Z,3.85
2023-06-07T15:43:36.745Z,4.32
2023-06-07T15:46:03.982Z,4.15
2023-06-07T15:48:30.946Z,4.35
2023-06-07T15:50:57.999Z,4.18
2023-06-07T15:53:24.926Z,4.50
2023-06-07T15:55:51.939Z,4.68
2023-06-07T15:58:18.865Z,4.82
2023-06-07T16:00:49.448Z,4.97
2023-06-07T16:03:17.423Z,4.63
2023-06-07T16:05:44.793Z,5.75
2023-06-07T16:08:14.373Z,5.93
2023-06-07T16:10:43.140Z,6.88
2023-06-07T16:13:10.183Z,5.93
2023-06-07T16:15:37.489Z,5.65
2023-06-07T16:18:06.294Z,6.18
2023-06-07T16:20:33.397Z,7.10
2023-06-07T16:23:00.409Z,6.30
2023-06-07T16:25:27.815Z,7.38
2023-06-07T16:27:55.453Z,6.43
2023-06-07T16:30:22.439Z,6.13
2023-06-07T16:32:49.649Z,6.20
2023-06-07T16:35:16.570Z,5.20
2023-06-07T16:37:43.561Z,5.97
2023-06-07T16:40:10.696Z,6.57
2023-06-07T16:42:40.487Z,6.32
2023-06-07T16:45:09.710Z,7.10
2023-06-07T16:47:36.947Z,6.53
2023-06-07T16:50:05.388Z,5.70
2023-06-07T16:52:34.087Z,6.50
2023-06-07T16:55:01.201Z,5.68
2023-06-07T16:57:28.351Z,4.78
2023-06-07T16:59:56.002Z,5.47
2023-06-07T17:02:23.270Z,5.63
2023-06-07T17:04:50.151Z,4.95
2023-06-07T17:07:18.050Z,6.30
2023-06-07T17:09:45.121Z,5.90
2023-06-07T17:12:16.129Z,4.63
2023-06-07T17:14:46.069Z,5.57
2023-06-07T17:17:14.498Z,5.65
2023-06-07T17:19:42.728Z,6.10
2023-06-07T17:22:10.895Z,5.97
2023-06-07T17:24:37.808Z,6.22
2023-06-07T17:27:08.224Z,6.10
2023-06-07T17:29:36.067Z,7.35
2023-06-07T17:32:03.214Z,5.63
2023-06-07T17:34:30.185Z,6.25
2023-06-07T17:36:57.130Z,5.18
2023-06-07T17:39:24.065Z,4.57
2023-06-07T17:41:51.094Z,4.93
2023-06-07T17:44:18.089Z,4.07
2023-06-07T17:46:47.592Z,4.32
2023-06-07T17:49:14.679Z,4.93
2023-06-07T17:51:44.743Z,4.53
2023-06-07T17:56:38.331Z,4.28
2023-06-07T17:59:05.210Z,3.30
2023-06-07T18:01:32.062Z,6.70
2023-06-07T18:03:58.980Z,4.68
2023-06-07T18:06:26.210Z,4.50
2023-06-07T18:08:53.559Z,4.75
2023-06-07T18:11:20.509Z,4.70
2023-06-07T18:13:47.938Z,4.75
2023-06-07T18:16:15.436Z,4.25
2023-06-07T18:18:42.366Z,4.57
2023-06-07T18:21:11.084Z,4.30
2023-06-07T18:23:38.835Z,4.10
2023-06-07T18:26:07.493Z,4.43
2023-06-07T18:28:34.992Z,4.07
2023-06-07T18:31:01.971Z,3.95
2023-06-07T18:33:29.938Z,3.72
2023-06-07T18:35:57.271Z,4.32
2023-06-07T18:38:25.629Z,3.97
2023-06-07T18:40:52.940Z,3.80
2023-06-07T18:43:21.106Z,3.63
2023-06-07T18:45:48.868Z,3.95
2023-06-07T18:48:18.115Z,3.90
2023-06-07T18:50:45.578Z,4.55
2023-06-07T18:53:12.772Z,4.13
2023-06-07T18:55:39.740Z,3.30
2023-06-07T18:58:08.659Z,4.05
2023-06-07T19:00:35.895Z,4.55
2023-06-07T19:03:03.143Z,4.35
2023-06-07T19:05:30.551Z,3.95
2023-06-07T19:07:57.563Z,4.65
2023-06-07T19:10:24.645Z,3.92
2023-06-07T19:12:51.602Z,4.25
2023-06-07T19:15:19.019Z,4.60
2023-06-07T19:17:46.657Z,4.30
2023-06-07T19:20:14.620Z,4.15
2023-06-07T19:22:41.687Z,4.45
2023-06-07T19:25:09.230Z,5.05
2023-06-07T19:27:36.625Z,4.55
2023-06-07T19:30:04.046Z,4.32
2023-06-07T19:32:30.969Z,4.30
2023-06-07T19:34:58.330Z,4.25
2023-06-07T19:37:25.125Z,4.22
2023-06-07T19:39:52.051Z,4.15
2023-06-07T19:42:21.200Z,4.57
2023-06-07T19:44:48.758Z,4.40
2023-06-07T19:47:15.733Z,4.93
2023-06-07T19:49:42.555Z,4.22
2023-06-07T19:52:09.515Z,4.53
2023-06-07T19:54:36.972Z,5.47
2023-06-07T19:57:06.696Z,4.05
2023-06-07T19:59:34.682Z,4.18
2023-06-07T20:02:05.175Z,5.10
2023-06-07T20:04:33.366Z,4.35
2023-06-07T20:07:07.362Z,4.93
2023-06-07T20:09:36.030Z,4.75
2023-06-07T20:12:03.746Z,4.40
2023-06-07T20:14:30.692Z,4.28
2023-06-07T20:16:57.681Z,5.68
2023-06-07T20:19:24.647Z,4.80
2023-06-07T20:21:51.958Z,4.50
2023-06-07T20:24:18.931Z,4.38
2023-06-07T20:26:48.022Z,4.30
2023-06-07T20:29:15.716Z,4.20
2023-06-07T20:31:44.025Z,4.78
2023-06-07T20:34:11.478Z,4.43
2023-06-07T20:36:38.931Z,4.63
2023-06-07T20:39:06.357Z,4.43
2023-06-07T20:41:34.492Z,4.28
2023-06-07T20:44:04.726Z,4.78
2023-06-07T20:48:58.799Z,6.25
2023-06-07T20:51:26.345Z,4.82
2023-06-07T20:53:53.202Z,4.22
2023-06-07T20:56:20.658Z,4.65
2023-06-07T20:58:47.598Z,4.22
2023-06-07T21:01:14.576Z,4.40
2023-06-07T21:03:41.625Z,4.50
2023-06-07T21:06:08.840Z,4.32
2023-06-07T21:08:36.474Z,4.35
2023-06-07T21:11:04.084Z,4.15
2023-06-07T21:13:31.670Z,3.97
2023-06-07T21:15:59.566Z,4.72
2023-06-07T21:18:26.716Z,4.35
2023-06-07T21:20:53.668Z,4.15
2023-06-07T21:23:21.304Z,4.00
2023-06-07T21:25:48.535Z,3.83
2023-06-07T21:28:15.474Z,3.92
2023-06-07T21:30:42.434Z,3.10
2023-06-07T21:33:09.392Z,3.50
2023-06-07T21:35:36.368Z,4.05
2023-06-07T21:38:03.372Z,3.75
2023-06-07T21:40:31.724Z,3.40
2023-06-07T21:42:59.331Z,3.63
2023-06-07T21:45:27.602Z,3.80
2023-06-07T21:47:54.562Z,3.38
2023-06-07T21:50:21.717Z,3.08
2023-06-07T21:52:48.626Z,3.53
2023-06-07T21:55:15.559Z,4.00
2023-06-07T21:57:42.496Z,4.38
2023-06-07T22:00:12.663Z,4.95
2023-06-07T22:02:40.665Z,5.00
2023-06-07T22:05:08.185Z,5.45
2023-06-07T22:07:35.217Z,4.65
2023-06-07T22:10:02.599Z,5.03
2023-06-07T22:12:31.249Z,4.93
2023-06-07T22:15:01.328Z,4.95
2023-06-07T22:17:29.713Z,4.43
2023-06-07T22:19:57.617Z,5.25
2023-06-07T22:22:24.580Z,5.47
2023-06-07T22:24:51.673Z,5.00
2023-06-07T22:27:18.615Z,4.95
2023-06-07T22:29:49.300Z,5.45
2023-06-07T22:32:16.400Z,5.20
2023-06-07T22:34:43.644Z,6.10
2023-06-07T22:37:12.399Z,6.53
2023-06-07T22:39:41.051Z,6.75
2023-06-07T22:42:08.215Z,6.43
2023-06-07T22:44:36.992Z,6.15
2023-06-07T22:47:05.561Z,6.70
2023-06-07T22:49:33.460Z,6.55
2023-06-07T22:52:00.648Z,6.25
2023-06-07T22:54:30.661Z,6.65
2023-06-07T22:56:57.560Z,7.53
2023-06-07T22:59:24.626Z,7.47
2023-06-07T23:01:51.723Z,7.20
2023-06-07T23:04:19.835Z,7.03
2023-06-07T23:06:49.518Z,7.93
2023-06-07T23:09:16.521Z,8.23
2023-06-07T23:11:43.466Z,8.93
2023-06-07T23:14:10.403Z,9.23
2023-06-07T23:16:37.357Z,8.25
2023-06-07T23:19:04.975Z,8.25
2023-06-07T23:21:32.741Z,8.35
2023-06-07T23:23:59.802Z,8.18
2023-06-07T23:26:26.889Z,8.25
2023-06-07T23:28:53.786Z,7.85
2023-06-07T23:31:21.579Z,7.68
2023-06-07T23:33:48.585Z,8.18
2023-06-07T23:36:16.362Z,7.47
2023-06-07T23:38:44.778Z,7.43
2023-06-07T23:41:11.710Z,7.85
2023-06-07T23:43:38.601Z,7.22
2023-06-07T23:46:05.652Z,8.00
2023-06-07T23:48:32.485Z,6.95
2023-06-07T23:50:59.348Z,7.60
2023-06-07T23:53:26.399Z,7.22
2023-06-07T23:55:54.042Z,7.38
2023-06-07T23:58:20.989Z,7.50
